sensor_id;sensor_type;location;lat;lon;timestamp;P1;durP1;ratioP1;P2;durP2;ratioP2
13122;SDS011;6627;50.920;12.050;2023-09-19T00:02:01;4.47;;;2.30;;
13122;SDS011;6627;50.920;12.050;2023-09-19T00:04:30;2.37;;;2.17;;
13122;SDS011;6627;50.920;12.050;2023-09-19T00:06:58;3.83;;;2.43;;
13122;SDS011;6627;50.920;12.050;2023-09-19T00:09:27;3.20;;;2.07;;
13122;SDS011;6627;50.920;12.050;2023-09-19T00:11:55;3.80;;;1.93;;
13122;SDS011;6627;50.920;12.050;2023-09-19T00:14:24;2.20;;;1.80;;
13122;SDS011;6627;50.920;12.050;2023-09-19T00:16:53;2.00;;;1.80;;
13122;SDS011;6627;50.920;12.050;2023-09-19T00:19:21;3.70;;;2.23;;
13122;SDS011;6627;50.920;12.050;2023-09-19T00:21:49;3.80;;;2.20;;
13122;SDS011;6627;50.920;12.050;2023-09-19T00:24:19;5.13;;;2.37;;
13122;SDS011;6627;50.920;12.050;2023-09-19T00:26:51;4.17;;;1.97;;
13122;SDS011;6627;50.920;12.050;2023-09-19T00:29:21;5.30;;;2.13;;
13122;SDS011;6627;50.920;12.050;2023-09-19T00:31:49;3.00;;;2.10;;
13122;SDS011;6627;50.920;12.050;2023-09-19T00:34:17;2.63;;;2.00;;
13122;SDS011;6627;50.920;12.050;2023-09-19T00:36:45;2.00;;;1.40;;
13122;SDS011;6627;50.920;12.050;2023-09-19T00:39:13;2.63;;;1.80;;
13122;SDS011;6627;50.920;12.050;2023-09-19T00:41:41;1.80;;;1.40;;
13122;SDS011;6627;50.920;12.050;2023-09-19T00:44:15;4.70;;;1.93;;
13122;SDS011;6627;50.920;12.050;2023-09-19T00:46:43;2.20;;;1.53;;
13122;SDS011;6627;50.920;12.050;2023-09-19T00:49:13;1.90;;;1.50;;
13122;SDS011;6627;50.920;12.050;2023-09-19T00:51:42;3.37;;;1.73;;
13122;SDS011;6627;50.920;12.050;2023-09-19T00:54:12;1.67;;;1.40;;
13122;SDS011;6627;50.920;12.050;2023-09-19T00:56:44;3.40;;;1.57;;
13122;SDS011;6627;50.920;12.050;2023-09-19T00:59:14;2.17;;;1.70;;
13122;SDS011;6627;50.920;12.050;2023-09-19T01:01:42;2.53;;;1.50;;
13122;SDS011;6627;50.920;12.050;2023-09-19T01:04:11;2.70;;;1.53;;
13122;SDS011;6627;50.920;12.050;2023-09-19T01:06:39;1.80;;;1.30;;
13122;SDS011;6627;50.920;12.050;2023-09-19T01:09:23;2.07;;;1.30;;
13122;SDS011;6627;50.920;12.050;2023-09-19T01:11:53;2.07;;;1.60;;
13122;SDS011;6627;50.920;12.050;2023-09-19T01:14:31;2.30;;;1.40;;
13122;SDS011;6627;50.920;12.050;2023-09-19T01:17:14;1.53;;;1.43;;
13122;SDS011;6627;50.920;12.050;2023-09-19T01:20:11;2.17;;;1.40;;
13122;SDS011;6627;50.920;12.050;2023-09-19T01:23:14;2.13;;;1.30;;
13122;SDS011;6627;50.920;12.050;2023-09-19T01:26:10;1.70;;;1.47;;
13122;SDS011;6627;50.920;12.050;2023-09-19T01:29:08;1.40;;;1.03;;
13122;SDS011;6627;50.920;12.050;2023-09-19T01:31:57;1.30;;;1.20;;
13122;SDS011;6627;50.920;12.050;2023-09-19T01:34:42;1.40;;;1.10;;
13122;SDS011;6627;50.920;12.050;2023-09-19T01:37:12;2.40;;;1.30;;
13122;SDS011;6627;50.920;12.050;2023-09-19T01:39:44;3.20;;;1.13;;
13122;SDS011;6627;50.920;12.050;2023-09-19T01:42:24;1.60;;;1.20;;
13122;SDS011;6627;50.920;12.050;2023-09-19T01:45:06;2.73;;;1.40;;
13122;SDS011;6627;50.920;12.050;2023-09-19T01:47:48;1.73;;;1.10;;
13122;SDS011;6627;50.920;12.050;2023-09-19T01:50:27;1.43;;;1.33;;
13122;SDS011;6627;50.920;12.050;2023-09-19T01:53:03;1.57;;;1.30;;
13122;SDS011;6627;50.920;12.050;2023-09-19T01:55:41;1.37;;;1.27;;
13122;SDS011;6627;50.920;12.050;2023-09-19T01:58:16;2.50;;;1.37;;
13122;SDS011;6627;50.920;12.050;2023-09-19T02:00:51;2.23;;;1.33;;
13122;SDS011;6627;50.920;12.050;2023-09-19T02:03:32;1.90;;;1.33;;
13122;SDS011;6627;50.920;12.050;2023-09-19T02:06:08;2.50;;;1.23;;
13122;SDS011;6627;50.920;12.050;2023-09-19T02:08:41;3.00;;;1.37;;
13122;SDS011;6627;50.920;12.050;2023-09-19T02:11:08;1.80;;;1.23;;
13122;SDS011;6627;50.920;12.050;2023-09-19T02:13:36;2.27;;;1.43;;
13122;SDS011;6627;50.920;12.050;2023-09-19T02:16:04;3.30;;;1.40;;
13122;SDS011;6627;50.920;12.050;2023-09-19T02:18:34;2.60;;;1.30;;
13122;SDS011;6627;50.920;12.050;2023-09-19T02:21:01;2.37;;;1.20;;
13122;SDS011;6627;50.920;12.050;2023-09-19T02:23:29;3.90;;;1.13;;
13122;SDS011;6627;50.920;12.050;2023-09-19T02:25:57;1.63;;;1.20;;
13122;SDS011;6627;50.920;12.050;2023-09-19T02:28:32;1.70;;;1.23;;
13122;SDS011;6627;50.920;12.050;2023-09-19T02:31:20;2.77;;;1.30;;
13122;SDS011;6627;50.920;12.050;2023-09-19T02:33:49;1.30;;;1.20;;
13122;SDS011;6627;50.920;12.050;2023-09-19T02:36:16;2.33;;;1.20;;
13122;SDS011;6627;50.920;12.050;2023-09-19T02:38:44;1.20;;;1.10;;
13122;SDS011;6627;50.920;12.050;2023-09-19T02:41:11;1.57;;;1.47;;
13122;SDS011;6627;50.920;12.050;2023-09-19T02:43:38;4.70;;;1.47;;
13122;SDS011;6627;50.920;12.050;2023-09-19T02:46:06;5.70;;;1.33;;
13122;SDS011;6627;50.920;12.050;2023-09-19T02:48:33;1.60;;;1.50;;
13122;SDS011;6627;50.920;12.050;2023-09-19T02:51:02;2.93;;;1.50;;
13122;SDS011;6627;50.920;12.050;2023-09-19T02:53:30;3.90;;;1.60;;
13122;SDS011;6627;50.920;12.050;2023-09-19T02:55:58;1.73;;;1.30;;
13122;SDS011;6627;50.920;12.050;2023-09-19T02:58:26;2.63;;;1.20;;
13122;SDS011;6627;50.920;12.050;2023-09-19T03:00:56;1.33;;;1.20;;
13122;SDS011;6627;50.920;12.050;2023-09-19T03:03:23;1.73;;;1.10;;
13122;SDS011;6627;50.920;12.050;2023-09-19T03:05:51;2.43;;;1.60;;
13122;SDS011;6627;50.920;12.050;2023-09-19T03:08:20;2.10;;;1.30;;
13122;SDS011;6627;50.920;12.050;2023-09-19T03:10:47;2.07;;;1.53;;
13122;SDS011;6627;50.920;12.050;2023-09-19T03:13:15;2.03;;;1.47;;
13122;SDS011;6627;50.920;12.050;2023-09-19T03:15:43;3.63;;;1.37;;
13122;SDS011;6627;50.920;12.050;2023-09-19T03:18:12;2.17;;;1.50;;
13122;SDS011;6627;50.920;12.050;2023-09-19T03:20:40;2.60;;;1.50;;
13122;SDS011;6627;50.920;12.050;2023-09-19T03:23:08;1.60;;;1.23;;
13122;SDS011;6627;50.920;12.050;2023-09-19T03:25:37;3.57;;;1.37;;
13122;SDS011;6627;50.920;12.050;2023-09-19T03:28:04;1.30;;;1.17;;
13122;SDS011;6627;50.920;12.050;2023-09-19T03:30:32;1.97;;;1.20;;
13122;SDS011;6627;50.920;12.050;2023-09-19T03:33:00;1.57;;;1.47;;
13122;SDS011;6627;50.920;12.050;2023-09-19T03:35:28;3.13;;;1.70;;
13122;SDS011;6627;50.920;12.050;2023-09-19T03:37:55;3.80;;;1.57;;
13122;SDS011;6627;50.920;12.050;2023-09-19T03:40:22;2.27;;;1.50;;
13122;SDS011;6627;50.920;12.050;2023-09-19T03:42:52;1.63;;;1.30;;
13122;SDS011;6627;50.920;12.050;2023-09-19T03:45:20;1.83;;;1.50;;
13122;SDS011;6627;50.920;12.050;2023-09-19T03:47:47;4.50;;;1.47;;
13122;SDS011;6627;50.920;12.050;2023-09-19T03:50:15;3.00;;;1.40;;
13122;SDS011;6627;50.920;12.050;2023-09-19T03:52:43;2.07;;;1.43;;
13122;SDS011;6627;50.920;12.050;2023-09-19T03:55:11;2.20;;;1.30;;
13122;SDS011;6627;50.920;12.050;2023-09-19T03:57:39;1.40;;;1.30;;
13122;SDS011;6627;50.920;12.050;2023-09-19T04:00:08;1.80;;;1.50;;
13122;SDS011;6627;50.920;12.050;2023-09-19T04:02:37;1.97;;;1.40;;
13122;SDS011;6627;50.920;12.050;2023-09-19T04:05:05;1.70;;;1.30;;
13122;SDS011;6627;50.920;12.050;2023-09-19T04:07:33;1.80;;;1.40;;
13122;SDS011;6627;50.920;12.050;2023-09-19T04:10:00;1.70;;;1.40;;
13122;SDS011;6627;50.920;12.050;2023-09-19T04:12:28;3.63;;;1.70;;
13122;SDS011;6627;50.920;12.050;2023-09-19T04:14:56;2.83;;;1.67;;
13122;SDS011;6627;50.920;12.050;2023-09-19T04:17:25;2.50;;;1.60;;
13122;SDS011;6627;50.920;12.050;2023-09-19T04:19:53;2.30;;;1.77;;
13122;SDS011;6627;50.920;12.050;2023-09-19T04:22:20;2.03;;;1.53;;
13122;SDS011;6627;50.920;12.050;2023-09-19T04:24:48;2.10;;;1.43;;
13122;SDS011;6627;50.920;12.050;2023-09-19T04:27:15;4.27;;;1.50;;
13122;SDS011;6627;50.920;12.050;2023-09-19T04:29:44;6.67;;;1.43;;
13122;SDS011;6627;50.920;12.050;2023-09-19T04:32:11;2.07;;;1.60;;
13122;SDS011;6627;50.920;12.050;2023-09-19T04:34:40;3.37;;;1.50;;
13122;SDS011;6627;50.920;12.050;2023-09-19T04:37:07;3.23;;;1.80;;
13122;SDS011;6627;50.920;12.050;2023-09-19T04:39:36;2.83;;;1.43;;
13122;SDS011;6627;50.920;12.050;2023-09-19T04:42:04;2.13;;;1.73;;
13122;SDS011;6627;50.920;12.050;2023-09-19T04:44:32;2.90;;;1.60;;
13122;SDS011;6627;50.920;12.050;2023-09-19T04:46:59;2.37;;;1.70;;
13122;SDS011;6627;50.920;12.050;2023-09-19T04:49:27;2.40;;;1.67;;
13122;SDS011;6627;50.920;12.050;2023-09-19T04:51:56;3.53;;;1.73;;
13122;SDS011;6627;50.920;12.050;2023-09-19T04:54:24;2.77;;;1.63;;
13122;SDS011;6627;50.920;12.050;2023-09-19T04:56:52;1.80;;;1.70;;
13122;SDS011;6627;50.920;12.050;2023-09-19T04:59:20;3.00;;;1.80;;
13122;SDS011;6627;50.920;12.050;2023-09-19T05:01:48;2.53;;;2.10;;
13122;SDS011;6627;50.920;12.050;2023-09-19T05:04:16;2.73;;;2.33;;
13122;SDS011;6627;50.920;12.050;2023-09-19T05:06:43;3.43;;;2.67;;
13122;SDS011;6627;50.920;12.050;2023-09-19T05:09:12;3.90;;;2.20;;
13122;SDS011;6627;50.920;12.050;2023-09-19T05:11:41;3.20;;;2.47;;
13122;SDS011;6627;50.920;12.050;2023-09-19T05:14:09;2.93;;;2.20;;
13122;SDS011;6627;50.920;12.050;2023-09-19T05:16:37;3.47;;;1.97;;
13122;SDS011;6627;50.920;12.050;2023-09-19T05:19:04;2.57;;;1.83;;
13122;SDS011;6627;50.920;12.050;2023-09-19T05:21:32;3.27;;;2.00;;
13122;SDS011;6627;50.920;12.050;2023-09-19T05:24:00;3.40;;;2.33;;
13122;SDS011;6627;50.920;12.050;2023-09-19T05:26:28;3.33;;;2.03;;
13122;SDS011;6627;50.920;12.050;2023-09-19T05:28:56;2.93;;;2.00;;
13122;SDS011;6627;50.920;12.050;2023-09-19T05:31:23;3.23;;;2.23;;
13122;SDS011;6627;50.920;12.050;2023-09-19T05:33:51;4.00;;;2.20;;
13122;SDS011;6627;50.920;12.050;2023-09-19T05:36:20;4.00;;;1.90;;
13122;SDS011;6627;50.920;12.050;2023-09-19T05:38:49;2.30;;;1.90;;
13122;SDS011;6627;50.920;12.050;2023-09-19T05:41:19;2.80;;;2.27;;
13122;SDS011;6627;50.920;12.050;2023-09-19T05:43:49;2.73;;;2.00;;
13122;SDS011;6627;50.920;12.050;2023-09-19T05:46:17;3.37;;;1.83;;
13122;SDS011;6627;50.920;12.050;2023-09-19T05:48:44;5.07;;;1.90;;
13122;SDS011;6627;50.920;12.050;2023-09-19T05:51:13;2.20;;;1.70;;
13122;SDS011;6627;50.920;12.050;2023-09-19T05:53:42;2.00;;;1.80;;
13122;SDS011;6627;50.920;12.050;2023-09-19T05:56:09;3.67;;;2.00;;
13122;SDS011;6627;50.920;12.050;2023-09-19T05:58:39;1.60;;;1.50;;
13122;SDS011;6627;50.920;12.050;2023-09-19T06:01:11;4.63;;;1.70;;
13122;SDS011;6627;50.920;12.050;2023-09-19T06:03:39;2.77;;;1.80;;
13122;SDS011;6627;50.920;12.050;2023-09-19T06:06:07;2.20;;;1.90;;
13122;SDS011;6627;50.920;12.050;2023-09-19T06:08:34;2.20;;;1.70;;
13122;SDS011;6627;50.920;12.050;2023-09-19T06:11:02;2.20;;;1.50;;
13122;SDS011;6627;50.920;12.050;2023-09-19T06:13:31;2.83;;;1.73;;
13122;SDS011;6627;50.920;12.050;2023-09-19T06:16:00;2.10;;;1.70;;
13122;SDS011;6627;50.920;12.050;2023-09-19T06:18:34;3.43;;;2.00;;
13122;SDS011;6627;50.920;12.050;2023-09-19T06:21:04;2.87;;;1.80;;
13122;SDS011;6627;50.920;12.050;2023-09-19T06:23:34;1.70;;;1.50;;
13122;SDS011;6627;50.920;12.050;2023-09-19T06:26:02;2.37;;;1.97;;
13122;SDS011;6627;50.920;12.050;2023-09-19T06:28:32;2.90;;;2.07;;
13122;SDS011;6627;50.920;12.050;2023-09-19T06:31:01;2.60;;;2.20;;
13122;SDS011;6627;50.920;12.050;2023-09-19T06:33:29;2.40;;;2.20;;
13122;SDS011;6627;50.920;12.050;2023-09-19T06:35:58;2.13;;;1.83;;
13122;SDS011;6627;50.920;12.050;2023-09-19T06:38:28;1.80;;;1.70;;
13122;SDS011;6627;50.920;12.050;2023-09-19T06:40:55;2.13;;;1.80;;
13122;SDS011;6627;50.920;12.050;2023-09-19T06:43:22;2.57;;;1.70;;
13122;SDS011;6627;50.920;12.050;2023-09-19T06:45:52;2.00;;;1.60;;
13122;SDS011;6627;50.920;12.050;2023-09-19T06:48:21;2.23;;;1.50;;
13122;SDS011;6627;50.920;12.050;2023-09-19T06:50:50;2.10;;;1.67;;
13122;SDS011;6627;50.920;12.050;2023-09-19T06:53:23;4.43;;;1.57;;
13122;SDS011;6627;50.920;12.050;2023-09-19T06:55:50;2.30;;;1.40;;
13122;SDS011;6627;50.920;12.050;2023-09-19T06:58:18;1.87;;;1.40;;
13122;SDS011;6627;50.920;12.050;2023-09-19T07:00:46;3.70;;;1.13;;
13122;SDS011;6627;50.920;12.050;2023-09-19T07:03:15;2.73;;;1.43;;
13122;SDS011;6627;50.920;12.050;2023-09-19T07:05:44;1.77;;;1.50;;
13122;SDS011;6627;50.920;12.050;2023-09-19T07:08:15;3.93;;;1.40;;
13122;SDS011;6627;50.920;12.050;2023-09-19T07:10:48;2.97;;;1.33;;
13122;SDS011;6627;50.920;12.050;2023-09-19T07:13:18;1.33;;;1.23;;
13122;SDS011;6627;50.920;12.050;2023-09-19T07:15:46;1.50;;;1.40;;
13122;SDS011;6627;50.920;12.050;2023-09-19T07:18:15;2.13;;;1.10;;
13122;SDS011;6627;50.920;12.050;2023-09-19T07:20:44;2.47;;;1.47;;
13122;SDS011;6627;50.920;12.050;2023-09-19T07:23:15;2.63;;;1.13;;
13122;SDS011;6627;50.920;12.050;2023-09-19T07:25:44;2.47;;;1.40;;
13122;SDS011;6627;50.920;12.050;2023-09-19T07:28:14;2.87;;;1.30;;
13122;SDS011;6627;50.920;12.050;2023-09-19T07:30:42;2.37;;;1.27;;
13122;SDS011;6627;50.920;12.050;2023-09-19T07:33:12;4.90;;;1.40;;
13122;SDS011;6627;50.920;12.050;2023-09-19T07:35:44;1.63;;;1.17;;
13122;SDS011;6627;50.920;12.050;2023-09-19T07:38:13;1.40;;;1.20;;
13122;SDS011;6627;50.920;12.050;2023-09-19T07:40:41;1.30;;;1.20;;
13122;SDS011;6627;50.920;12.050;2023-09-19T07:43:08;4.60;;;1.30;;
13122;SDS011;6627;50.920;12.050;2023-09-19T07:45:37;1.13;;;0.97;;
13122;SDS011;6627;50.920;12.050;2023-09-19T07:48:05;2.13;;;0.90;;
13122;SDS011;6627;50.920;12.050;2023-09-19T07:50:40;2.47;;;1.20;;
13122;SDS011;6627;50.920;12.050;2023-09-19T07:53:09;1.47;;;1.03;;
13122;SDS011;6627;50.920;12.050;2023-09-19T07:55:38;2.83;;;1.40;;
13122;SDS011;6627;50.920;12.050;2023-09-19T07:58:06;2.40;;;1.20;;
13122;SDS011;6627;50.920;12.050;2023-09-19T08:00:33;2.23;;;1.40;;
13122;SDS011;6627;50.920;12.050;2023-09-19T08:03:02;2.43;;;1.43;;
13122;SDS011;6627;50.920;12.050;2023-09-19T08:05:31;2.30;;;1.20;;
13122;SDS011;6627;50.920;12.050;2023-09-19T08:07:59;2.97;;;1.03;;
13122;SDS011;6627;50.920;12.050;2023-09-19T08:10:31;2.87;;;1.30;;
13122;SDS011;6627;50.920;12.050;2023-09-19T08:13:00;1.23;;;1.10;;
13122;SDS011;6627;50.920;12.050;2023-09-19T08:15:28;2.77;;;1.30;;
13122;SDS011;6627;50.920;12.050;2023-09-19T08:17:59;1.20;;;1.10;;
13122;SDS011;6627;50.920;12.050;2023-09-19T08:20:29;1.47;;;1.17;;
13122;SDS011;6627;50.920;12.050;2023-09-19T08:22:58;1.73;;;1.10;;
13122;SDS011;6627;50.920;12.050;2023-09-19T08:25:25;1.13;;;0.97;;
13122;SDS011;6627;50.920;12.050;2023-09-19T08:27:54;2.23;;;1.40;;
13122;SDS011;6627;50.920;12.050;2023-09-19T08:30:24;2.43;;;1.20;;
13122;SDS011;6627;50.920;12.050;2023-09-19T08:32:56;2.60;;;1.40;;
13122;SDS011;6627;50.920;12.050;2023-09-19T08:35:24;2.53;;;1.10;;
13122;SDS011;6627;50.920;12.050;2023-09-19T08:37:53;1.93;;;1.50;;
13122;SDS011;6627;50.920;12.050;2023-09-19T08:40:27;1.33;;;1.23;;
13122;SDS011;6627;50.920;12.050;2023-09-19T08:42:55;3.10;;;1.10;;
13122;SDS011;6627;50.920;12.050;2023-09-19T08:45:25;2.70;;;1.03;;
13122;SDS011;6627;50.920;12.050;2023-09-19T08:47:56;1.57;;;1.10;;
13122;SDS011;6627;50.920;12.050;2023-09-19T08:50:47;1.30;;;1.10;;
13122;SDS011;6627;50.920;12.050;2023-09-19T08:53:27;2.10;;;1.10;;
13122;SDS011;6627;50.920;12.050;2023-09-19T08:56:08;1.30;;;1.03;;
13122;SDS011;6627;50.920;12.050;2023-09-19T08:58:40;1.10;;;1.00;;
13122;SDS011;6627;50.920;12.050;2023-09-19T09:01:13;1.10;;;0.83;;
13122;SDS011;6627;50.920;12.050;2023-09-19T09:03:43;2.20;;;1.23;;
13122;SDS011;6627;50.920;12.050;2023-09-19T09:06:13;1.23;;;0.90;;
13122;SDS011;6627;50.920;12.050;2023-09-19T09:08:43;1.30;;;1.00;;
13122;SDS011;6627;50.920;12.050;2023-09-19T09:11:12;2.67;;;1.20;;
13122;SDS011;6627;50.920;12.050;2023-09-19T09:13:43;2.00;;;1.20;;
13122;SDS011;6627;50.920;12.050;2023-09-19T09:16:12;2.23;;;1.17;;
13122;SDS011;6627;50.920;12.050;2023-09-19T09:18:43;0.83;;;0.80;;
13122;SDS011;6627;50.920;12.050;2023-09-19T09:21:10;3.50;;;1.07;;
13122;SDS011;6627;50.920;12.050;2023-09-19T09:23:41;3.47;;;3.03;;
13122;SDS011;6627;50.920;12.050;2023-09-19T09:26:11;2.53;;;1.53;;
13122;SDS011;6627;50.920;12.050;2023-09-19T09:28:45;1.80;;;1.20;;
13122;SDS011;6627;50.920;12.050;2023-09-19T09:31:21;1.63;;;1.13;;
13122;SDS011;6627;50.920;12.050;2023-09-19T09:33:52;0.83;;;0.80;;
13122;SDS011;6627;50.920;12.050;2023-09-19T09:36:33;1.80;;;1.20;;
13122;SDS011;6627;50.920;12.050;2023-09-19T09:39:03;3.63;;;1.20;;
13122;SDS011;6627;50.920;12.050;2023-09-19T09:41:44;1.77;;;0.93;;
13122;SDS011;6627;50.920;12.050;2023-09-19T09:44:12;3.47;;;1.10;;
13122;SDS011;6627;50.920;12.050;2023-09-19T09:46:43;1.60;;;1.20;;
13122;SDS011;6627;50.920;12.050;2023-09-19T09:49:41;1.70;;;1.17;;
13122;SDS011;6627;50.920;12.050;2023-09-19T09:52:36;2.17;;;1.30;;
13122;SDS011;6627;50.920;12.050;2023-09-19T09:55:14;2.20;;;1.20;;
13122;SDS011;6627;50.920;12.050;2023-09-19T09:57:45;2.67;;;1.40;;
13122;SDS011;6627;50.920;12.050;2023-09-19T10:00:13;4.40;;;1.40;;
13122;SDS011;6627;50.920;12.050;2023-09-19T10:02:46;2.97;;;1.20;;
13122;SDS011;6627;50.920;12.050;2023-09-19T10:05:15;1.20;;;1.10;;
13122;SDS011;6627;50.920;12.050;2023-09-19T10:07:48;1.40;;;1.10;;
13122;SDS011;6627;50.920;12.050;2023-09-19T10:10:30;2.00;;;1.20;;
13122;SDS011;6627;50.920;12.050;2023-09-19T10:13:19;1.40;;;1.10;;
13122;SDS011;6627;50.920;12.050;2023-09-19T10:15:49;2.27;;;1.10;;
13122;SDS011;6627;50.920;12.050;2023-09-19T10:18:20;2.27;;;1.30;;
13122;SDS011;6627;50.920;12.050;2023-09-19T10:20:53;2.17;;;1.37;;
13122;SDS011;6627;50.920;12.050;2023-09-19T10:23:22;1.60;;;1.20;;
13122;SDS011;6627;50.920;12.050;2023-09-19T10:25:53;3.70;;;1.23;;
13122;SDS011;6627;50.920;12.050;2023-09-19T10:28:21;1.60;;;1.10;;
13122;SDS011;6627;50.920;12.050;2023-09-19T10:30:49;1.40;;;1.20;;
13122;SDS011;6627;50.920;12.050;2023-09-19T10:33:19;3.53;;;1.33;;
13122;SDS011;6627;50.920;12.050;2023-09-19T10:35:49;1.90;;;1.20;;
13122;SDS011;6627;50.920;12.050;2023-09-19T10:38:18;3.07;;;1.90;;
13122;SDS011;6627;50.920;12.050;2023-09-19T10:40:51;1.57;;;1.20;;
13122;SDS011;6627;50.920;12.050;2023-09-19T10:43:25;1.23;;;1.13;;
13122;SDS011;6627;50.920;12.050;2023-09-19T10:45:57;2.00;;;1.30;;
13122;SDS011;6627;50.920;12.050;2023-09-19T10:48:29;1.90;;;1.20;;
13122;SDS011;6627;50.920;12.050;2023-09-19T10:51:00;3.37;;;1.57;;
13122;SDS011;6627;50.920;12.050;2023-09-19T10:53:41;1.90;;;1.30;;
13122;SDS011;6627;50.920;12.050;2023-09-19T10:56:19;2.17;;;1.30;;
13122;SDS011;6627;50.920;12.050;2023-09-19T10:59:04;1.53;;;1.30;;
13122;SDS011;6627;50.920;12.050;2023-09-19T11:01:43;1.87;;;1.20;;
13122;SDS011;6627;50.920;12.050;2023-09-19T11:04:21;3.80;;;1.50;;
13122;SDS011;6627;50.920;12.050;2023-09-19T11:07:01;4.03;;;1.23;;
13122;SDS011;6627;50.920;12.050;2023-09-19T11:09:43;3.03;;;1.47;;
13122;SDS011;6627;50.920;12.050;2023-09-19T11:18:51;1.80;;;1.40;;
13122;SDS011;6627;50.920;12.050;2023-09-19T11:24:28;1.93;;;1.40;;
13122;SDS011;6627;50.920;12.050;2023-09-19T11:27:09;2.60;;;1.63;;
13122;SDS011;6627;50.920;12.050;2023-09-19T11:29:45;2.37;;;1.60;;
13122;SDS011;6627;50.920;12.050;2023-09-19T11:32:13;2.20;;;1.50;;
13122;SDS011;6627;50.920;12.050;2023-09-19T11:35:06;2.20;;;1.60;;
13122;SDS011;6627;50.920;12.050;2023-09-19T11:40:36;1.40;;;1.30;;
13122;SDS011;6627;50.920;12.050;2023-09-19T11:46:07;2.47;;;1.43;;
13122;SDS011;6627;50.920;12.050;2023-09-19T11:48:35;2.53;;;1.90;;
13122;SDS011;6627;50.920;12.050;2023-09-19T11:51:13;2.60;;;1.63;;
13122;SDS011;6627;50.920;12.050;2023-09-19T11:53:48;2.27;;;1.60;;
13122;SDS011;6627;50.920;12.050;2023-09-19T11:56:17;5.07;;;1.93;;
13122;SDS011;6627;50.920;12.050;2023-09-19T11:58:48;2.27;;;1.80;;
13122;SDS011;6627;50.920;12.050;2023-09-19T12:01:23;3.97;;;1.87;;
13122;SDS011;6627;50.920;12.050;2023-09-19T12:03:54;1.97;;;1.77;;
13122;SDS011;6627;50.920;12.050;2023-09-19T12:06:24;3.27;;;1.90;;
13122;SDS011;6627;50.920;12.050;2023-09-19T12:08:55;2.63;;;1.83;;
13122;SDS011;6627;50.920;12.050;2023-09-19T12:11:29;2.37;;;1.90;;
13122;SDS011;6627;50.920;12.050;2023-09-19T12:14:00;6.73;;;1.87;;
13122;SDS011;6627;50.920;12.050;2023-09-19T12:16:30;2.13;;;1.63;;
13122;SDS011;6627;50.920;12.050;2023-09-19T12:18:58;2.50;;;1.80;;
13122;SDS011;6627;50.920;12.050;2023-09-19T12:21:53;4.13;;;2.07;;
13122;SDS011;6627;50.920;12.050;2023-09-19T12:24:23;2.87;;;2.13;;
13122;SDS011;6627;50.920;12.050;2023-09-19T12:26:53;2.50;;;1.93;;
13122;SDS011;6627;50.920;12.050;2023-09-19T12:29:25;2.80;;;1.80;;
13122;SDS011;6627;50.920;12.050;2023-09-19T12:31:54;4.67;;;2.00;;
13122;SDS011;6627;50.920;12.050;2023-09-19T12:34:25;2.30;;;1.67;;
13122;SDS011;6627;50.920;12.050;2023-09-19T12:37:04;3.70;;;2.07;;
13122;SDS011;6627;50.920;12.050;2023-09-19T12:39:39;1.87;;;1.67;;
13122;SDS011;6627;50.920;12.050;2023-09-19T12:42:17;3.03;;;1.83;;
13122;SDS011;6627;50.920;12.050;2023-09-19T12:44:48;1.97;;;1.63;;
13122;SDS011;6627;50.920;12.050;2023-09-19T12:47:22;1.93;;;1.70;;
13122;SDS011;6627;50.920;12.050;2023-09-19T12:50:06;2.20;;;1.90;;
13122;SDS011;6627;50.920;12.050;2023-09-19T12:52:45;2.87;;;1.70;;
13122;SDS011;6627;50.920;12.050;2023-09-19T12:55:20;3.17;;;2.03;;
13122;SDS011;6627;50.920;12.050;2023-09-19T12:58:02;2.33;;;1.77;;
13122;SDS011;6627;50.920;12.050;2023-09-19T13:00:40;2.27;;;1.80;;
13122;SDS011;6627;50.920;12.050;2023-09-19T13:03:13;2.90;;;1.97;;
13122;SDS011;6627;50.920;12.050;2023-09-19T13:05:46;2.53;;;1.73;;
13122;SDS011;6627;50.920;12.050;2023-09-19T13:08:20;2.80;;;2.10;;
13122;SDS011;6627;50.920;12.050;2023-09-19T13:11:03;2.40;;;1.77;;
13122;SDS011;6627;50.920;12.050;2023-09-19T13:13:42;3.03;;;1.70;;
13122;SDS011;6627;50.920;12.050;2023-09-19T13:16:13;3.97;;;2.10;;
13122;SDS011;6627;50.920;12.050;2023-09-19T13:18:47;2.17;;;1.80;;
13122;SDS011;6627;50.920;12.050;2023-09-19T13:21:26;3.23;;;1.97;;
13122;SDS011;6627;50.920;12.050;2023-09-19T13:26:48;2.17;;;1.77;;
13122;SDS011;6627;50.920;12.050;2023-09-19T13:29:15;3.47;;;2.00;;
13122;SDS011;6627;50.920;12.050;2023-09-19T13:31:45;3.00;;;2.07;;
13122;SDS011;6627;50.920;12.050;2023-09-19T13:34:15;2.60;;;1.80;;
13122;SDS011;6627;50.920;12.050;2023-09-19T13:36:43;2.67;;;2.07;;
13122;SDS011;6627;50.920;12.050;2023-09-19T13:39:13;3.90;;;2.10;;
13122;SDS011;6627;50.920;12.050;2023-09-19T13:41:41;4.13;;;2.00;;
13122;SDS011;6627;50.920;12.050;2023-09-19T13:44:13;3.00;;;2.17;;
13122;SDS011;6627;50.920;12.050;2023-09-19T13:46:41;3.37;;;2.17;;
13122;SDS011;6627;50.920;12.050;2023-09-19T13:49:24;2.70;;;2.00;;
13122;SDS011;6627;50.920;12.050;2023-09-19T13:51:51;3.00;;;2.33;;
13122;SDS011;6627;50.920;12.050;2023-09-19T13:54:20;3.70;;;2.20;;
13122;SDS011;6627;50.920;12.050;2023-09-19T13:56:48;6.13;;;2.53;;
13122;SDS011;6627;50.920;12.050;2023-09-19T13:59:16;4.23;;;2.53;;
13122;SDS011;6627;50.920;12.050;2023-09-19T14:01:47;3.10;;;2.50;;
13122;SDS011;6627;50.920;12.050;2023-09-19T14:04:15;4.73;;;2.57;;
13122;SDS011;6627;50.920;12.050;2023-09-19T14:06:45;3.77;;;2.10;;
13122;SDS011;6627;50.920;12.050;2023-09-19T14:09:14;3.13;;;2.17;;
13122;SDS011;6627;50.920;12.050;2023-09-19T14:11:45;4.43;;;2.90;;
13122;SDS011;6627;50.920;12.050;2023-09-19T14:14:13;3.07;;;2.40;;
13122;SDS011;6627;50.920;12.050;2023-09-19T14:16:41;3.23;;;2.13;;
13122;SDS011;6627;50.920;12.050;2023-09-19T14:19:09;2.50;;;2.30;;
13122;SDS011;6627;50.920;12.050;2023-09-19T14:21:36;2.40;;;2.20;;
13122;SDS011;6627;50.920;12.050;2023-09-19T14:24:06;2.83;;;2.40;;
13122;SDS011;6627;50.920;12.050;2023-09-19T14:26:35;4.20;;;2.60;;
13122;SDS011;6627;50.920;12.050;2023-09-19T14:29:02;3.87;;;2.50;;
13122;SDS011;6627;50.920;12.050;2023-09-19T14:31:29;3.37;;;2.20;;
13122;SDS011;6627;50.920;12.050;2023-09-19T14:33:57;3.60;;;2.10;;
13122;SDS011;6627;50.920;12.050;2023-09-19T14:36:28;3.37;;;2.27;;
13122;SDS011;6627;50.920;12.050;2023-09-19T14:38:56;3.77;;;2.40;;
13122;SDS011;6627;50.920;12.050;2023-09-19T14:41:25;2.10;;;1.80;;
13122;SDS011;6627;50.920;12.050;2023-09-19T14:43:52;4.07;;;1.97;;
13122;SDS011;6627;50.920;12.050;2023-09-19T14:46:21;3.47;;;2.30;;
13122;SDS011;6627;50.920;12.050;2023-09-19T14:48:50;3.23;;;2.40;;
13122;SDS011;6627;50.920;12.050;2023-09-19T14:51:18;3.43;;;2.00;;
13122;SDS011;6627;50.920;12.050;2023-09-19T14:53:46;4.63;;;2.10;;
13122;SDS011;6627;50.920;12.050;2023-09-19T14:56:13;4.13;;;2.50;;
13122;SDS011;6627;50.920;12.050;2023-09-19T14:58:45;2.73;;;1.80;;
13122;SDS011;6627;50.920;12.050;2023-09-19T15:01:13;3.63;;;1.90;;
13122;SDS011;6627;50.920;12.050;2023-09-19T15:03:41;4.33;;;2.20;;
13122;SDS011;6627;50.920;12.050;2023-09-19T15:06:09;2.60;;;2.03;;
13122;SDS011;6627;50.920;12.050;2023-09-19T15:08:41;4.10;;;2.10;;
13122;SDS011;6627;50.920;12.050;2023-09-19T15:11:11;5.37;;;2.30;;
13122;SDS011;6627;50.920;12.050;2023-09-19T15:13:39;5.80;;;2.50;;
13122;SDS011;6627;50.920;12.050;2023-09-19T15:16:08;3.33;;;2.33;;
13122;SDS011;6627;50.920;12.050;2023-09-19T15:18:39;4.83;;;2.57;;
13122;SDS011;6627;50.920;12.050;2023-09-19T15:21:09;4.20;;;2.30;;
13122;SDS011;6627;50.920;12.050;2023-09-19T15:23:38;3.00;;;2.33;;
13122;SDS011;6627;50.920;12.050;2023-09-19T15:26:08;4.20;;;2.53;;
13122;SDS011;6627;50.920;12.050;2023-09-19T15:28:40;9.83;;;2.50;;
13122;SDS011;6627;50.920;12.050;2023-09-19T15:31:09;3.00;;;2.63;;